sensor_id;sensor_type;location;lat;lon;timestamp;temperature;humidity
6008;DHT22;3032;49.484;11.112;2022-12-18T00:03:47;-6.80;99.90
6008;DHT22;3032;49.484;11.112;2022-12-18T00:06:13;-6.80;99.90
6008;DHT22;3032;49.484;11.112;2022-12-18T00:08:39;-6.60;99.90
6008;DHT22;3032;49.484;11.112;2022-12-18T00:11:07;-6.90;99.90
6008;DHT22;3032;49.484;11.112;2022-12-18T00:13:33;-6.50;99.90
6008;DHT22;3032;49.484;11.112;2022-12-18T00:16:07;-7.00;99.90
6008;DHT22;3032;49.484;11.112;2022-12-18T00:18:33;-7.10;99.90
6008;DHT22;3032;49.484;11.112;2022-12-18T00:21:00;-7.10;99.90
6008;DHT22;3032;49.484;11.112;2022-12-18T00:23:27;-7.30;99.90
6008;DHT22;3032;49.484;11.112;2022-12-18T00:25:52;-7.70;99.90
6008;DHT22;3032;49.484;11.112;2022-12-18T00:28:18;-8.00;99.90
6008;DHT22;3032;49.484;11.112;2022-12-18T00:30:44;-8.20;99.90
6008;DHT22;3032;49.484;11.112;2022-12-18T00:33:09;-8.30;99.90
6008;DHT22;3032;49.484;11.112;2022-12-18T00:35:35;-8.30;99.90
6008;DHT22;3032;49.484;11.112;2022-12-18T00:38:00;-8.20;99.90
6008;DHT22;3032;49.484;11.112;2022-12-18T00:40:26;-8.10;99.90
6008;DHT22;3032;49.484;11.112;2022-12-18T00:42:52;-8.00;99.90
6008;DHT22;3032;49.484;11.112;2022-12-18T00:45:25;-7.90;99.90
6008;DHT22;3032;49.484;11.112;2022-12-18T00:47:51;-8.00;99.90
6008;DHT22;3032;49.484;11.112;2022-12-18T00:50:16;-7.90;99.90
6008;DHT22;3032;49.484;11.112;2022-12-18T00:52:42;-7.80;99.90
6008;DHT22;3032;49.484;11.112;2022-12-18T00:55:09;-7.60;99.90
6008;DHT22;3032;49.484;11.112;2022-12-18T00:57:34;-8.10;99.90
6008;DHT22;3032;49.484;11.112;2022-12-18T01:00:00;-8.50;99.90
6008;DHT22;3032;49.484;11.112;2022-12-18T01:02:26;-8.80;99.90
6008;DHT22;3032;49.484;11.112;2022-12-18T01:04:51;-8.80;99.90
6008;DHT22;3032;49.484;11.112;2022-12-18T01:07:17;-8.60;99.90
6008;DHT22;3032;49.484;11.112;2022-12-18T01:09:42;-8.60;99.90
6008;DHT22;3032;49.484;11.112;2022-12-18T01:12:08;-8.70;99.90
6008;DHT22;3032;49.484;11.112;2022-12-18T01:14:33;-8.70;99.90
6008;DHT22;3032;49.484;11.112;2022-12-18T01:16:59;-8.70;99.90
6008;DHT22;3032;49.484;11.112;2022-12-18T01:19:25;-8.70;99.90
6008;DHT22;3032;49.484;11.112;2022-12-18T01:21:50;-8.60;99.90
6008;DHT22;3032;49.484;11.112;2022-12-18T01:24:16;-8.10;99.90
6008;DHT22;3032;49.484;11.112;2022-12-18T01:26:41;-8.30;99.90
6008;DHT22;3032;49.484;11.112;2022-12-18T01:29:07;-8.30;99.90
6008;DHT22;3032;49.484;11.112;2022-12-18T01:31:33;-8.50;99.90
6008;DHT22;3032;49.484;11.112;2022-12-18T01:34:01;-8.50;99.90
6008;DHT22;3032;49.484;11.112;2022-12-18T01:36:29;-8.40;99.90
6008;DHT22;3032;49.484;11.112;2022-12-18T01:38:56;-8.50;99.90
6008;DHT22;3032;49.484;11.112;2022-12-18T01:41:27;-8.70;99.90
6008;DHT22;3032;49.484;11.112;2022-12-18T01:50:23;-8.10;99.90
6008;DHT22;3032;49.484;11.112;2022-12-18T01:52:52;-8.10;99.90
6008;DHT22;3032;49.484;11.112;2022-12-18T01:55:20;-8.00;99.90
6008;DHT22;3032;49.484;11.112;2022-12-18T01:57:47;-7.80;99.90
6008;DHT22;3032;49.484;11.112;2022-12-18T02:00:17;-7.30;99.90
6008;DHT22;3032;49.484;11.112;2022-12-18T02:02:44;-7.50;99.90
6008;DHT22;3032;49.484;11.112;2022-12-18T02:05:11;-7.40;99.90
6008;DHT22;3032;49.484;11.112;2022-12-18T02:10:59;-7.70;99.90
6008;DHT22;3032;49.484;11.112;2022-12-18T02:13:58;-7.80;99.90
6008;DHT22;3032;49.484;11.112;2022-12-18T02:28:09;-7.30;99.90
6008;DHT22;3032;49.484;11.112;2022-12-18T02:30:37;-7.40;99.90
6008;DHT22;3032;49.484;11.112;2022-12-18T02:33:06;-7.90;99.90
6008;DHT22;3032;49.484;11.112;2022-12-18T02:35:34;-8.20;99.90
6008;DHT22;3032;49.484;11.112;2022-12-18T02:38:03;-8.00;99.90
6008;DHT22;3032;49.484;11.112;2022-12-18T02:40:30;-7.90;99.90
6008;DHT22;3032;49.484;11.112;2022-12-18T02:43:03;-7.80;99.90
6008;DHT22;3032;49.484;11.112;2022-12-18T02:45:31;-7.80;99.90
6008;DHT22;3032;49.484;11.112;2022-12-18T02:47:57;-7.90;99.90
6008;DHT22;3032;49.484;11.112;2022-12-18T02:50:40;-7.30;99.90
6008;DHT22;3032;49.484;11.112;2022-12-18T02:53:15;-7.50;99.90
6008;DHT22;3032;49.484;11.112;2022-12-18T02:56:14;-7.40;99.90
6008;DHT22;3032;49.484;11.112;2022-12-18T02:58:55;-7.30;99.90
6008;DHT22;3032;49.484;11.112;2022-12-18T03:06:54;-7.40;99.90
6008;DHT22;3032;49.484;11.112;2022-12-18T03:09:33;-7.30;99.90
6008;DHT22;3032;49.484;11.112;2022-12-18T03:12:20;-7.50;99.90
6008;DHT22;3032;49.484;11.112;2022-12-18T03:14:52;-7.70;99.90
6008;DHT22;3032;49.484;11.112;2022-12-18T03:17:23;-7.70;99.90
6008;DHT22;3032;49.484;11.112;2022-12-18T03:19:52;-8.10;99.90
6008;DHT22;3032;49.484;11.112;2022-12-18T03:22:20;-7.90;99.90
6008;DHT22;3032;49.484;11.112;2022-12-18T03:24:47;-8.10;99.90
6008;DHT22;3032;49.484;11.112;2022-12-18T03:27:18;-8.20;99.90
6008;DHT22;3032;49.484;11.112;2022-12-18T03:30:03;-8.20;99.90
6008;DHT22;3032;49.484;11.112;2022-12-18T03:32:41;-8.00;99.90
6008;DHT22;3032;49.484;11.112;2022-12-18T03:35:10;-8.00;99.90
6008;DHT22;3032;49.484;11.112;2022-12-18T03:37:36;-7.80;99.90
6008;DHT22;3032;49.484;11.112;2022-12-18T03:40:03;-7.80;99.90
6008;DHT22;3032;49.484;11.112;2022-12-18T03:42:37;-7.80;99.90
6008;DHT22;3032;49.484;11.112;2022-12-18T03:48:14;-7.30;99.90
6008;DHT22;3032;49.484;11.112;2022-12-18T03:51:05;-7.00;99.90
6008;DHT22;3032;49.484;11.112;2022-12-18T03:53:42;-6.60;99.90
6008;DHT22;3032;49.484;11.112;2022-12-18T03:56:13;-5.90;99.90
6008;DHT22;3032;49.484;11.112;2022-12-18T03:58:42;-6.30;99.90
6008;DHT22;3032;49.484;11.112;2022-12-18T04:01:10;-6.30;99.90
6008;DHT22;3032;49.484;11.112;2022-12-18T04:03:37;-6.60;99.90
6008;DHT22;3032;49.484;11.112;2022-12-18T04:06:03;-6.30;99.90
6008;DHT22;3032;49.484;11.112;2022-12-18T04:08:29;-7.10;99.90
6008;DHT22;3032;49.484;11.112;2022-12-18T04:10:55;-7.10;99.90
6008;DHT22;3032;49.484;11.112;2022-12-18T04:13:22;-7.00;99.90
6008;DHT22;3032;49.484;11.112;2022-12-18T04:15:48;-7.00;99.90
6008;DHT22;3032;49.484;11.112;2022-12-18T04:18:14;-7.10;99.90
6008;DHT22;3032;49.484;11.112;2022-12-18T04:20:39;-7.10;99.90
6008;DHT22;3032;49.484;11.112;2022-12-18T04:23:05;-7.10;99.90
6008;DHT22;3032;49.484;11.112;2022-12-18T04:25:30;-7.00;99.90
6008;DHT22;3032;49.484;11.112;2022-12-18T04:27:56;-6.80;99.90
6008;DHT22;3032;49.484;11.112;2022-12-18T04:30:21;-6.50;99.90
6008;DHT22;3032;49.484;11.112;2022-12-18T04:32:47;-6.40;99.90
6008;DHT22;3032;49.484;11.112;2022-12-18T04:35:12;-6.20;99.90
6008;DHT22;3032;49.484;11.112;2022-12-18T04:37:38;-6.10;99.90
6008;DHT22;3032;49.484;11.112;2022-12-18T04:40:04;-5.80;99.90
6008;DHT22;3032;49.484;11.112;2022-12-18T04:42:30;-6.30;99.90
6008;DHT22;3032;49.484;11.112;2022-12-18T04:44:55;-6.30;99.90
6008;DHT22;3032;49.484;11.112;2022-12-18T04:47:21;-6.80;99.90
6008;DHT22;3032;49.484;11.112;2022-12-18T04:49:46;-7.00;99.90
6008;DHT22;3032;49.484;11.112;2022-12-18T04:52:12;-7.10;99.90
6008;DHT22;3032;49.484;11.112;2022-12-18T04:54:37;-7.20;99.90
6008;DHT22;3032;49.484;11.112;2022-12-18T04:57:03;-7.20;99.90
6008;DHT22;3032;49.484;11.112;2022-12-18T04:59:28;-7.20;99.90
6008;DHT22;3032;49.484;11.112;2022-12-18T05:01:54;-7.00;99.90
6008;DHT22;3032;49.484;11.112;2022-12-18T05:04:20;-7.20;99.90
6008;DHT22;3032;49.484;11.112;2022-12-18T05:06:45;-7.10;99.90
6008;DHT22;3032;49.484;11.112;2022-12-18T05:09:11;-6.90;99.90
6008;DHT22;3032;49.484;11.112;2022-12-18T05:11:37;-7.00;99.90
6008;DHT22;3032;49.484;11.112;2022-12-18T05:14:02;-6.90;99.90
6008;DHT22;3032;49.484;11.112;2022-12-18T05:16:28;-7.10;99.90
6008;DHT22;3032;49.484;11.112;2022-12-18T05:18:53;-7.10;99.90
6008;DHT22;3032;49.484;11.112;2022-12-18T05:21:19;-7.10;99.90
6008;DHT22;3032;49.484;11.112;2022-12-18T05:23:44;-7.10;99.90
6008;DHT22;3032;49.484;11.112;2022-12-18T05:26:15;-7.00;99.90
6008;DHT22;3032;49.484;11.112;2022-12-18T05:28:41;-7.00;99.90
6008;DHT22;3032;49.484;11.112;2022-12-18T05:31:06;-7.00;99.90
6008;DHT22;3032;49.484;11.112;2022-12-18T05:33:34;-6.90;99.90
6008;DHT22;3032;49.484;11.112;2022-12-18T05:36:02;-6.70;99.90
6008;DHT22;3032;49.484;11.112;2022-12-18T05:38:29;-6.80;99.90
6008;DHT22;3032;49.484;11.112;2022-12-18T05:40:55;-6.60;99.90
6008;DHT22;3032;49.484;11.112;2022-12-18T05:43:22;-6.70;99.90
6008;DHT22;3032;49.484;11.112;2022-12-18T05:45:49;-6.80;99.90
6008;DHT22;3032;49.484;11.112;2022-12-18T05:48:15;-6.60;99.90
6008;DHT22;3032;49.484;11.112;2022-12-18T05:50:43;-6.70;99.90
6008;DHT22;3032;49.484;11.112;2022-12-18T05:53:11;-6.20;99.90
6008;DHT22;3032;49.484;11.112;2022-12-18T05:55:38;-6.00;99.90
6008;DHT22;3032;49.484;11.112;2022-12-18T05:58:06;-6.90;99.90
6008;DHT22;3032;49.484;11.112;2022-12-18T06:00:39;-6.30;99.90
6008;DHT22;3032;49.484;11.112;2022-12-18T06:03:09;-6.10;99.90
6008;DHT22;3032;49.484;11.112;2022-12-18T06:05:40;-6.10;99.90
6008;DHT22;3032;49.484;11.112;2022-12-18T06:08:06;-6.40;99.90
6008;DHT22;3032;49.484;11.112;2022-12-18T06:10:32;-6.30;99.90
6008;DHT22;3032;49.484;11.112;2022-12-18T06:12:58;-6.00;99.90
6008;DHT22;3032;49.484;11.112;2022-12-18T06:15:24;-5.70;99.90
6008;DHT22;3032;49.484;11.112;2022-12-18T06:17:49;-6.60;99.90
6008;DHT22;3032;49.484;11.112;2022-12-18T06:20:15;-6.10;99.90
6008;DHT22;3032;49.484;11.112;2022-12-18T06:22:40;-6.00;99.90
6008;DHT22;3032;49.484;11.112;2022-12-18T06:25:06;-5.70;99.90
6008;DHT22;3032;49.484;11.112;2022-12-18T06:27:32;-6.40;99.90
6008;DHT22;3032;49.484;11.112;2022-12-18T06:29:59;-6.20;99.90
6008;DHT22;3032;49.484;11.112;2022-12-18T06:32:25;-6.10;99.90
6008;DHT22;3032;49.484;11.112;2022-12-18T06:34:50;-6.20;99.90
6008;DHT22;3032;49.484;11.112;2022-12-18T06:37:16;-5.70;99.90
6008;DHT22;3032;49.484;11.112;2022-12-18T06:39:41;-6.10;99.90
6008;DHT22;3032;49.484;11.112;2022-12-18T06:42:07;-6.00;99.90
6008;DHT22;3032;49.484;11.112;2022-12-18T06:44:32;-5.90;99.90
6008;DHT22;3032;49.484;11.112;2022-12-18T06:46:58;-5.40;99.90
6008;DHT22;3032;49.484;11.112;2022-12-18T06:49:23;-6.00;99.90
6008;DHT22;3032;49.484;11.112;2022-12-18T06:51:49;-5.40;99.90
6008;DHT22;3032;49.484;11.112;2022-12-18T06:54:15;-5.80;99.90
6008;DHT22;3032;49.484;11.112;2022-12-18T06:56:40;-5.50;99.90
6008;DHT22;3032;49.484;11.112;2022-12-18T06:59:06;-5.40;99.90
6008;DHT22;3032;49.484;11.112;2022-12-18T07:01:31;-5.70;99.90
6008;DHT22;3032;49.484;11.112;2022-12-18T07:03:57;-5.30;99.90
6008;DHT22;3032;49.484;11.112;2022-12-18T07:06:25;-5.00;99.90
6008;DHT22;3032;49.484;11.112;2022-12-18T07:08:52;-5.00;99.90
6008;DHT22;3032;49.484;11.112;2022-12-18T07:11:18;-5.50;99.90
6008;DHT22;3032;49.484;11.112;2022-12-18T07:13:45;-5.30;99.90
6008;DHT22;3032;49.484;11.112;2022-12-18T07:16:13;-4.80;99.90
6008;DHT22;3032;49.484;11.112;2022-12-18T07:18:39;-5.40;99.90
6008;DHT22;3032;49.484;11.112;2022-12-18T07:21:06;-5.00;99.90
6008;DHT22;3032;49.484;11.112;2022-12-18T07:23:33;-5.70;99.90
6008;DHT22;3032;49.484;11.112;2022-12-18T07:26:08;-5.20;99.90
6008;DHT22;3032;49.484;11.112;2022-12-18T07:28:35;-5.50;99.90
6008;DHT22;3032;49.484;11.112;2022-12-18T07:31:05;-5.20;99.90
6008;DHT22;3032;49.484;11.112;2022-12-18T07:33:32;-5.50;99.90
6008;DHT22;3032;49.484;11.112;2022-12-18T07:35:59;-5.40;99.90
6008;DHT22;3032;49.484;11.112;2022-12-18T07:38:25;-5.60;99.90
6008;DHT22;3032;49.484;11.112;2022-12-18T07:40:50;-5.00;99.90
6008;DHT22;3032;49.484;11.112;2022-12-18T07:43:16;-5.50;99.90
6008;DHT22;3032;49.484;11.112;2022-12-18T07:45:42;-4.90;99.90
6008;DHT22;3032;49.484;11.112;2022-12-18T07:48:08;-4.50;99.90
6008;DHT22;3032;49.484;11.112;2022-12-18T07:50:33;-4.90;99.90
6008;DHT22;3032;49.484;11.112;2022-12-18T07:52:59;-4.70;99.90
6008;DHT22;3032;49.484;11.112;2022-12-18T07:55:29;-4.50;99.90
6008;DHT22;3032;49.484;11.112;2022-12-18T07:57:55;-4.70;99.90
6008;DHT22;3032;49.484;11.112;2022-12-18T08:00:20;-4.90;99.90
6008;DHT22;3032;49.484;11.112;2022-12-18T08:02:46;-4.30;99.90
6008;DHT22;3032;49.484;11.112;2022-12-18T08:05:11;-4.30;99.90
6008;DHT22;3032;49.484;11.112;2022-12-18T08:07:37;-4.20;99.90
6008;DHT22;3032;49.484;11.112;2022-12-18T08:10:03;-3.90;99.90
6008;DHT22;3032;49.484;11.112;2022-12-18T08:12:29;-4.00;99.90
6008;DHT22;3032;49.484;11.112;2022-12-18T08:14:54;-3.90;99.90
6008;DHT22;3032;49.484;11.112;2022-12-18T08:17:20;-3.90;99.90
6008;DHT22;3032;49.484;11.112;2022-12-18T08:19:45;-3.60;99.90
6008;DHT22;3032;49.484;11.112;2022-12-18T08:22:11;-3.40;99.90
6008;DHT22;3032;49.484;11.112;2022-12-18T08:24:36;-3.40;99.90
6008;DHT22;3032;49.484;11.112;2022-12-18T08:27:02;-3.30;99.90
6008;DHT22;3032;49.484;11.112;2022-12-18T08:29:27;-3.30;99.90
6008;DHT22;3032;49.484;11.112;2022-12-18T08:31:53;-2.90;99.90
6008;DHT22;3032;49.484;11.112;2022-12-18T08:34:19;-2.80;99.90
6008;DHT22;3032;49.484;11.112;2022-12-18T08:36:44;-3.00;99.90
6008;DHT22;3032;49.484;11.112;2022-12-18T08:39:10;-2.90;99.90
6008;DHT22;3032;49.484;11.112;2022-12-18T08:41:35;-3.20;99.90
6008;DHT22;3032;49.484;11.112;2022-12-18T08:44:01;-3.20;99.90
6008;DHT22;3032;49.484;11.112;2022-12-18T08:46:45;-3.40;99.90
6008;DHT22;3032;49.484;11.112;2022-12-18T08:49:11;-3.00;99.90
6008;DHT22;3032;49.484;11.112;2022-12-18T08:51:37;-2.80;99.90
6008;DHT22;3032;49.484;11.112;2022-12-18T08:54:04;-2.90;99.90
6008;DHT22;3032;49.484;11.112;2022-12-18T08:56:30;-2.90;99.90
6008;DHT22;3032;49.484;11.112;2022-12-18T08:58:56;-3.00;99.90
6008;DHT22;3032;49.484;11.112;2022-12-18T09:01:22;-3.10;99.90
6008;DHT22;3032;49.484;11.112;2022-12-18T09:03:49;-2.70;99.90
6008;DHT22;3032;49.484;11.112;2022-12-18T09:06:16;-2.40;99.90
6008;DHT22;3032;49.484;11.112;2022-12-18T09:08:43;-2.30;99.90
6008;DHT22;3032;49.484;11.112;2022-12-18T09:11:20;-2.30;99.90
6008;DHT22;3032;49.484;11.112;2022-12-18T09:13:46;-2.30;99.90
6008;DHT22;3032;49.484;11.112;2022-12-18T09:16:11;-2.20;99.90
6008;DHT22;3032;49.484;11.112;2022-12-18T09:18:37;-2.50;99.90
6008;DHT22;3032;49.484;11.112;2022-12-18T09:21:11;-2.50;99.90
6008;DHT22;3032;49.484;11.112;2022-12-18T09:23:37;-2.40;99.90
6008;DHT22;3032;49.484;11.112;2022-12-18T09:26:02;-2.30;99.90
6008;DHT22;3032;49.484;11.112;2022-12-18T09:28:28;-2.30;99.90
6008;DHT22;3032;49.484;11.112;2022-12-18T09:30:54;-2.40;99.90
6008;DHT22;3032;49.484;11.112;2022-12-18T09:33:19;-2.50;99.90
6008;DHT22;3032;49.484;11.112;2022-12-18T09:35:46;-2.40;99.90
6008;DHT22;3032;49.484;11.112;2022-12-18T09:38:19;-2.60;99.90
6008;DHT22;3032;49.484;11.112;2022-12-18T09:40:48;-2.60;99.90
6008;DHT22;3032;49.484;11.112;2022-12-18T09:43:18;-2.40;99.90
6008;DHT22;3032;49.484;11.112;2022-12-18T09:45:49;-2.40;99.90
6008;DHT22;3032;49.484;11.112;2022-12-18T09:48:23;-2.40;99.90
6008;DHT22;3032;49.484;11.112;2022-12-18T09:50:56;-2.40;99.90
6008;DHT22;3032;49.484;11.112;2022-12-18T09:53:24;-2.40;99.90
6008;DHT22;3032;49.484;11.112;2022-12-18T09:55:52;-2.00;99.90
6008;DHT22;3032;49.484;11.112;2022-12-18T09:58:30;-1.80;99.90
6008;DHT22;3032;49.484;11.112;2022-12-18T10:00:57;-1.90;99.90
6008;DHT22;3032;49.484;11.112;2022-12-18T10:03:23;-1.90;99.90
6008;DHT22;3032;49.484;11.112;2022-12-18T10:08:33;-1.70;99.90
6008;DHT22;3032;49.484;11.112;2022-12-18T10:11:13;-1.30;99.90
6008;DHT22;3032;49.484;11.112;2022-12-18T10:16:42;-0.40;99.90
6008;DHT22;3032;49.484;11.112;2022-12-18T10:19:50;0.60;99.90
6008;DHT22;3032;49.484;11.112;2022-12-18T10:25:31;1.00;99.90
6008;DHT22;3032;49.484;11.112;2022-12-18T10:28:12;1.00;99.90
6008;DHT22;3032;49.484;11.112;2022-12-18T10:30:39;1.80;99.90
6008;DHT22;3032;49.484;11.112;2022-12-18T10:33:08;1.90;99.90
6008;DHT22;3032;49.484;11.112;2022-12-18T10:35:35;2.60;99.90
6008;DHT22;3032;49.484;11.112;2022-12-18T10:40:30;2.40;99.90
6008;DHT22;3032;49.484;11.112;2022-12-18T10:43:12;2.80;99.90
6008;DHT22;3032;49.484;11.112;2022-12-18T10:45:39;2.40;99.90
6008;DHT22;3032;49.484;11.112;2022-12-18T10:48:17;2.20;99.90
6008;DHT22;3032;49.484;11.112;2022-12-18T10:50:47;3.20;99.90
6008;DHT22;3032;49.484;11.112;2022-12-18T10:53:25;3.90;99.90
6008;DHT22;3032;49.484;11.112;2022-12-18T10:55:54;4.00;99.90
6008;DHT22;3032;49.484;11.112;2022-12-18T11:01:16;5.10;98.30
6008;DHT22;3032;49.484;11.112;2022-12-18T11:03:58;5.20;97.60
6008;DHT22;3032;49.484;11.112;2022-12-18T11:06:25;5.30;96.20
6008;DHT22;3032;49.484;11.112;2022-12-18T11:08:59;4.70;96.30
6008;DHT22;3032;49.484;11.112;2022-12-18T11:11:26;4.10;96.80
6008;DHT22;3032;49.484;11.112;2022-12-18T11:13:59;3.30;98.20
6008;DHT22;3032;49.484;11.112;2022-12-18T11:16:27;2.70;98.90
6008;DHT22;3032;49.484;11.112;2022-12-18T11:18:53;2.50;99.90
6008;DHT22;3032;49.484;11.112;2022-12-18T11:21:19;2.60;99.90
6008;DHT22;3032;49.484;11.112;2022-12-18T11:23:53;2.70;99.90
6008;DHT22;3032;49.484;11.112;2022-12-18T11:26:19;2.70;99.90
6008;DHT22;3032;49.484;11.112;2022-12-18T11:28:50;2.40;99.90
6008;DHT22;3032;49.484;11.112;2022-12-18T11:33:49;1.80;99.90
6008;DHT22;3032;49.484;11.112;2022-12-18T11:36:17;1.30;99.90
6008;DHT22;3032;49.484;11.112;2022-12-18T11:38:52;1.00;99.90
6008;DHT22;3032;49.484;11.112;2022-12-18T11:41:30;1.00;99.90
6008;DHT22;3032;49.484;11.112;2022-12-18T11:44:26;0.90;99.90
6008;DHT22;3032;49.484;11.112;2022-12-18T11:47:00;0.40;99.90
6008;DHT22;3032;49.484;11.112;2022-12-18T11:49:33;0.10;99.90
6008;DHT22;3032;49.484;11.112;2022-12-18T11:54:34;0.20;99.90
6008;DHT22;3032;49.484;11.112;2022-12-18T11:57:34;0.30;99.90
6008;DHT22;3032;49.484;11.112;2022-12-18T12:00:11;0.10;99.90
6008;DHT22;3032;49.484;11.112;2022-12-18T12:05:39;0.00;99.90
6008;DHT22;3032;49.484;11.112;2022-12-18T12:11:39;0.00;99.90
6008;DHT22;3032;49.484;11.112;2022-12-18T12:17:52;0.00;99.90
6008;DHT22;3032;49.484;11.112;2022-12-18T12:20:24;0.00;99.90
6008;DHT22;3032;49.484;11.112;2022-12-18T12:26:14;0.30;99.90
6008;DHT22;3032;49.484;11.112;2022-12-18T12:29:03;0.40;99.90
6008;DHT22;3032;49.484;11.112;2022-12-18T12:34:31;0.00;99.90
6008;DHT22;3032;49.484;11.112;2022-12-18T12:39:51;0.30;99.90
6008;DHT22;3032;49.484;11.112;2022-12-18T12:42:39;0.10;99.90
6008;DHT22;3032;49.484;11.112;2022-12-18T12:48:34;0.10;99.90
6008;DHT22;3032;49.484;11.112;2022-12-18T12:51:04;0.10;99.90
6008;DHT22;3032;49.484;11.112;2022-12-18T12:53:35;0.20;99.90
6008;DHT22;3032;49.484;11.112;2022-12-18T12:56:03;0.00;99.90
6008;DHT22;3032;49.484;11.112;2022-12-18T12:58:39;-0.10;99.90
6008;DHT22;3032;49.484;11.112;2022-12-18T13:06:55;0.30;99.90
6008;DHT22;3032;49.484;11.112;2022-12-18T13:09:24;0.20;99.90
6008;DHT22;3032;49.484;11.112;2022-12-18T13:11:50;0.20;99.90
6008;DHT22;3032;49.484;11.112;2022-12-18T13:14:39;0.10;99.90
6008;DHT22;3032;49.484;11.112;2022-12-18T13:19:49;-0.10;99.90
6008;DHT22;3032;49.484;11.112;2022-12-18T13:22:28;-0.40;99.90
6008;DHT22;3032;49.484;11.112;2022-12-18T13:24:55;-0.90;99.90
6008;DHT22;3032;49.484;11.112;2022-12-18T13:35:41;-0.30;99.90
6008;DHT22;3032;49.484;11.112;2022-12-18T13:38:37;-0.50;99.90
6008;DHT22;3032;49.484;11.112;2022-12-18T13:41:24;-0.60;99.90
6008;DHT22;3032;49.484;11.112;2022-12-18T13:43:55;-0.40;99.90
6008;DHT22;3032;49.484;11.112;2022-12-18T13:46:28;-0.60;99.90
6008;DHT22;3032;49.484;11.112;2022-12-18T13:49:05;-1.00;99.90
6008;DHT22;3032;49.484;11.112;2022-12-18T13:51:33;-0.90;99.90
6008;DHT22;3032;49.484;11.112;2022-12-18T13:56:28;-0.50;99.90
6008;DHT22;3032;49.484;11.112;2022-12-18T13:59:18;-0.70;99.90
6008;DHT22;3032;49.484;11.112;2022-12-18T14:01:50;-0.80;99.90
6008;DHT22;3032;49.484;11.112;2022-12-18T14:04:36;-0.70;99.90
6008;DHT22;3032;49.484;11.112;2022-12-18T14:07:04;-0.70;99.90
6008;DHT22;3032;49.484;11.112;2022-12-18T14:09:35;-0.80;99.90
6008;DHT22;3032;49.484;11.112;2022-12-18T14:12:02;-0.90;99.90
6008;DHT22;3032;49.484;11.112;2022-12-18T14:14:48;-1.10;99.90
6008;DHT22;3032;49.484;11.112;2022-12-18T14:17:16;-1.20;99.90
6008;DHT22;3032;49.484;11.112;2022-12-18T14:19:47;-1.30;99.90
6008;DHT22;3032;49.484;11.112;2022-12-18T14:22:19;-1.20;99.90
6008;DHT22;3032;49.484;11.112;2022-12-18T14:24:47;-1.30;99.90
6008;DHT22;3032;49.484;11.112;2022-12-18T14:27:20;-1.30;99.90
6008;DHT22;3032;49.484;11.112;2022-12-18T14:29:46;-1.30;99.90
6008;DHT22;3032;49.484;11.112;2022-12-18T14:32:17;-1.20;99.90
6008;DHT22;3032;49.484;11.112;2022-12-18T14:34:48;-1.10;99.90
6008;DHT22;3032;49.484;11.112;2022-12-18T14:37:17;-1.30;99.90
6008;DHT22;3032;49.484;11.112;2022-12-18T14:40:04;-1.40;99.90
6008;DHT22;3032;49.484;11.112;2022-12-18T14:42:29;-1.50;99.90
6008;DHT22;3032;49.484;11.112;2022-12-18T14:45:33;-1.60;99.90
6008;DHT22;3032;49.484;11.112;2022-12-18T14:47:59;-1.60;99.90
6008;DHT22;3032;49.484;11.112;2022-12-18T14:50:26;-1.50;99.90
6008;DHT22;3032;49.484;11.112;2022-12-18T14:52:52;-1.50;99.90
6008;DHT22;3032;49.484;11.112;2022-12-18T14:55:19;-1.60;99.90
6008;DHT22;3032;49.484;11.112;2022-12-18T14:57:46;-1.60;99.90
6008;DHT22;3032;49.484;11.112;2022-12-18T15:00:18;-1.60;99.90
6008;DHT22;3032;49.484;11.112;2022-12-18T15:02:46;-1.90;99.90
6008;DHT22;3032;49.484;11.112;2022-12-18T15:05:18;-2.00;99.90
6008;DHT22;3032;49.484;11.112;2022-12-18T15:07:50;-1.90;99.90
6008;DHT22;3032;49.484;11.112;2022-12-18T15:20:50;-2.40;99.90
6008;DHT22;3032;49.484;11.112;2022-12-18T15:23:29;-2.40;99.90
6008;DHT22;3032;49.484;11.112;2022-12-18T15:26:00;-2.50;99.90
6008;DHT22;3032;49.484;11.112;2022-12-18T15:34:00;-2.50;99.90
6008;DHT22;3032;49.484;11.112;2022-12-18T15:36:25;-2.50;99.90
6008;DHT22;3032;49.484;11.112;2022-12-18T15:38:51;-2.40;99.90
6008;DHT22;3032;49.484;11.112;2022-12-18T15:41:19;-2.30;99.90
6008;DHT22;3032;49.484;11.112;2022-12-18T15:43:46;-2.40;99.90
6008;DHT22;3032;49.484;11.112;2022-12-18T15:46:16;-2.30;99.90
6008;DHT22;3032;49.484;11.112;2022-12-18T15:48:44;-2.40;99.90
6008;DHT22;3032;49.484;11.112;2022-12-18T15:51:18;-2.40;99.90
6008;DHT22;3032;49.484;11.112;2022-12-18T15:53:46;-2.70;99.90
6008;DHT22;3032;49.484;11.112;2022-12-18T15:56:13;-2.60;99.90
6008;DHT22;3032;49.484;11.112;2022-12-18T15:58:58;-2.50;99.90
6008;DHT22;3032;49.484;11.112;2022-12-18T16:01:26;-2.60;99.90
6008;DHT22;3032;49.484;11.112;2022-12-18T16:03:52;-2.60;99.90
6008;DHT22;3032;49.484;11.112;2022-12-18T16:06:19;-2.40;99.90
6008;DHT22;3032;49.484;11.112;2022-12-18T16:08:45;-2.20;99.90
6008;DHT22;3032;49.484;11.112;2022-12-18T16:11:24;-2.20;99.90
6008;DHT22;3032;49.484;11.112;2022-12-18T16:16:51;-2.40;99.90
6008;DHT22;3032;49.484;11.112;2022-12-18T16:19:17;-2.20;99.90
6008;DHT22;3032;49.484;11.112;2022-12-18T16:21:45;-2.00;99.90
6008;DHT22;3032;49.484;11.112;2022-12-18T16:24:16;-1.60;99.90
6008;DHT22;3032;49.484;11.112;2022-12-18T16:26:42;-1.90;99.90
6008;DHT22;3032;49.484;11.112;2022-12-18T16:29:09;-2.00;99.90
6008;DHT22;3032;49.484;11.112;2022-12-18T16:31:34;-2.20;99.90
6008;DHT22;3032;49.484;11.112;2022-12-18T16:34:14;-2.40;99.90
6008;DHT22;3032;49.484;11.112;2022-12-18T16:36:43;-2.50;99.90
6008;DHT22;3032;49.484;11.112;2022-12-18T16:39:08;-2.70;99.90
6008;DHT22;3032;49.484;11.112;2022-12-18T16:41:34;-2.70;99.90
6008;DHT22;3032;49.484;11.112;2022-12-18T16:44:01;-2.70;99.90
6008;DHT22;3032;49.484;11.112;2022-12-18T16:46:26;-2.70;99.90
6008;DHT22;3032;49.484;11.112;2022-12-18T16:48:52;-2.80;99.90
6008;DHT22;3032;49.484;11.112;2022-12-18T16:51:17;-2.70;99.90
6008;DHT22;3032;49.484;11.112;2022-12-18T16:53:43;-2.80;99.90
6008;DHT22;3032;49.484;11.112;2022-12-18T16:56:09;-2.80;99.90
6008;DHT22;3032;49.484;11.112;2022-12-18T16:58:34;-2.70;99.90
6008;DHT22;3032;49.484;11.112;2022-12-18T17:01:01;-2.90;99.90
6008;DHT22;3032;49.484;11.112;2022-12-18T17:03:26;-2.90;99.90
6008;DHT22;3032;49.484;11.112;2022-12-18T17:05:52;-2.90;99.90
6008;DHT22;3032;49.484;11.112;2022-12-18T17:08:17;-2.80;99.90
6008;DHT22;3032;49.484;11.112;2022-12-18T17:10:43;-2.90;99.90
6008;DHT22;3032;49.484;11.112;2022-12-18T17:13:08;-2.90;99.90
6008;DHT22;3032;49.484;11.112;2022-12-18T17:15:35;-3.00;99.90
6008;DHT22;3032;49.484;11.112;2022-12-18T17:18:01;-3.00;99.90
6008;DHT22;3032;49.484;11.112;2022-12-18T17:20:27;-3.10;99.90
6008;DHT22;3032;49.484;11.112;2022-12-18T17:22:52;-3.00;99.90
6008;DHT22;3032;49.484;11.112;2022-12-18T17:25:18;-3.10;99.90
6008;DHT22;3032;49.484;11.112;2022-12-18T17:27:43;-3.20;99.90
6008;DHT22;3032;49.484;11.112;2022-12-18T17:30:09;-3.20;99.90
6008;DHT22;3032;49.484;11.112;2022-12-18T17:32:35;-3.30;99.90
6008;DHT22;3032;49.484;11.112;2022-12-18T17:35:00;-3.30;99.90
6008;DHT22;3032;49.484;11.112;2022-12-18T17:37:26;-3.20;99.90
6008;DHT22;3032;49.484;11.112;2022-12-18T17:39:52;-3.10;99.90
6008;DHT22;3032;49.484;11.112;2022-12-18T17:42:17;-3.10;99.90
6008;DHT22;3032;49.484;11.112;2022-12-18T17:44:43;-3.10;99.90
6008;DHT22;3032;49.484;11.112;2022-12-18T17:47:09;-2.80;99.90
6008;DHT22;3032;49.484;11.112;2022-12-18T17:49:36;-2.90;99.90
6008;DHT22;3032;49.484;11.112;2022-12-18T17:52:02;-2.70;99.90